LYNI

Details ICAO LYNI (INI)
Name NIS
Region Serbia and Montenegro
Timezone Europe/Belgrade (UTC+1.0)
Plans Departing 93
Arriving 57
Stats Elevation 648 ft / 198 m (AMSL)
Location 43.336748° 21.855417°
Runways 1
Magnetic Variation 4.766° E
Sunrise 2017-12-14 05:58:43 UTC / 2017-12-14 06:58:43 Local
Sunset 2017-12-14 14:58:33 UTC / 2017-12-14 15:58:33 Local
Advertisement - Login to hide

Runways

ID Width Length Bearing (true) Bearing (mag) Surface Threshold Offset Overrun Length
11 148 ft / 45 m 8,187 ft / 2,495 m 113.61° 108.84° Asphalt 719 ft / 219 m 0 ft / 0 m
29 148 ft / 45 m 8,187 ft / 2,495 m 293.63° 288.86° Asphalt 985 ft / 300 m 0 ft / 0 m

Map

Weather


0- 5 10 15 20 25 30 35+ Temperature / ° C

Clouds and Precipitation
Forecast for 2017-12-14 12:00 UTC. Updated an hour ago

Ground ~20,000 ft ~40,000 ft Winds

METAR

LYNI 141030Z VRB01KT 9999 3500E SCT030 07/07 Q1012 NOSIG

TAF

TAF LYNI 140500Z 1406/1506 21004KT 0400 FG VV001 TX13/1412Z TN01/1406Z BECMG 1408/1410 2000 BR BKN006 BECMG 1410/1412 6000 NSW BKN030 TEMPO 1415/1421 3000 -RA BR

Frequencies

Tower 129.32 MHz TWR
Approach 129.32 MHz APP
Warning: Do not use this data for real-world aviation or navigation. No guarantee of current accuracy is given.